sensor_id;sensor_type;location;lat;lon;timestamp;temperature;humidity
31455;DHT22;18084;53.028;8.834;2024-03-29T00:00:36;7.10;75.90
31455;DHT22;18084;53.028;8.834;2024-03-29T00:03:01;7.10;75.90
31455;DHT22;18084;53.028;8.834;2024-03-29T00:05:27;7.00;75.80
31455;DHT22;18084;53.028;8.834;2024-03-29T00:07:52;7.00;76.00
31455;DHT22;18084;53.028;8.834;2024-03-29T00:10:18;7.00;76.10
31455;DHT22;18084;53.028;8.834;2024-03-29T00:12:43;6.90;76.00
31455;DHT22;18084;53.028;8.834;2024-03-29T00:15:09;6.90;76.00
31455;DHT22;18084;53.028;8.834;2024-03-29T00:17:35;6.90;75.90
31455;DHT22;18084;53.028;8.834;2024-03-29T00:20:00;6.80;76.20
31455;DHT22;18084;53.028;8.834;2024-03-29T00:22:27;6.80;76.40
31455;DHT22;18084;53.028;8.834;2024-03-29T00:24:52;6.70;76.50
31455;DHT22;18084;53.028;8.834;2024-03-29T00:27:18;6.70;76.50
31455;DHT22;18084;53.028;8.834;2024-03-29T00:29:43;6.80;76.50
31455;DHT22;18084;53.028;8.834;2024-03-29T00:32:11;6.70;76.30
31455;DHT22;18084;53.028;8.834;2024-03-29T00:34:36;6.70;76.30
31455;DHT22;18084;53.028;8.834;2024-03-29T00:37:02;6.80;76.30
31455;DHT22;18084;53.028;8.834;2024-03-29T00:39:27;6.70;76.20
31455;DHT22;18084;53.028;8.834;2024-03-29T00:41:53;6.70;76.50
31455;DHT22;18084;53.028;8.834;2024-03-29T00:44:18;6.80;76.30
31455;DHT22;18084;53.028;8.834;2024-03-29T00:46:44;6.80;75.90
31455;DHT22;18084;53.028;8.834;2024-03-29T00:49:10;6.90;75.60
31455;DHT22;18084;53.028;8.834;2024-03-29T00:51:35;6.90;75.60
31455;DHT22;18084;53.028;8.834;2024-03-29T00:54:01;6.90;75.60
31455;DHT22;18084;53.028;8.834;2024-03-29T00:56:27;6.80;75.70
31455;DHT22;18084;53.028;8.834;2024-03-29T00:58:52;6.80;75.90
31455;DHT22;18084;53.028;8.834;2024-03-29T01:01:18;6.80;76.10
31455;DHT22;18084;53.028;8.834;2024-03-29T01:03:43;6.70;76.00
31455;DHT22;18084;53.028;8.834;2024-03-29T01:06:09;6.70;76.20
31455;DHT22;18084;53.028;8.834;2024-03-29T01:08:34;6.70;76.10
31455;DHT22;18084;53.028;8.834;2024-03-29T01:11:00;6.70;76.10
31455;DHT22;18084;53.028;8.834;2024-03-29T01:13:25;6.70;75.90
31455;DHT22;18084;53.028;8.834;2024-03-29T01:15:51;6.80;75.90
31455;DHT22;18084;53.028;8.834;2024-03-29T01:18:17;6.80;75.50
31455;DHT22;18084;53.028;8.834;2024-03-29T01:20:42;6.90;75.80
31455;DHT22;18084;53.028;8.834;2024-03-29T01:23:08;6.80;75.60
31455;DHT22;18084;53.028;8.834;2024-03-29T01:25:34;6.80;75.80
31455;DHT22;18084;53.028;8.834;2024-03-29T01:27:59;6.80;75.70
31455;DHT22;18084;53.028;8.834;2024-03-29T01:30:25;6.80;75.70
31455;DHT22;18084;53.028;8.834;2024-03-29T01:32:52;6.70;75.70
31455;DHT22;18084;53.028;8.834;2024-03-29T01:35:17;6.70;75.80
31455;DHT22;18084;53.028;8.834;2024-03-29T01:37:43;6.70;75.80
31455;DHT22;18084;53.028;8.834;2024-03-29T01:40:09;6.70;75.80
31455;DHT22;18084;53.028;8.834;2024-03-29T01:42:35;6.80;75.80
31455;DHT22;18084;53.028;8.834;2024-03-29T01:45:01;6.70;75.70
31455;DHT22;18084;53.028;8.834;2024-03-29T01:47:26;6.70;75.70
31455;DHT22;18084;53.028;8.834;2024-03-29T01:49:52;6.60;75.70
31455;DHT22;18084;53.028;8.834;2024-03-29T01:52:19;6.70;75.80
31455;DHT22;18084;53.028;8.834;2024-03-29T01:54:46;6.70;75.70
31455;DHT22;18084;53.028;8.834;2024-03-29T01:57:13;6.70;75.70
31455;DHT22;18084;53.028;8.834;2024-03-29T01:59:40;6.70;75.70
31455;DHT22;18084;53.028;8.834;2024-03-29T02:02:07;6.60;75.80
31455;DHT22;18084;53.028;8.834;2024-03-29T02:04:33;6.60;75.70
31455;DHT22;18084;53.028;8.834;2024-03-29T02:07:00;6.70;75.70
31455;DHT22;18084;53.028;8.834;2024-03-29T02:09:25;6.60;75.90
31455;DHT22;18084;53.028;8.834;2024-03-29T02:11:51;6.60;75.80
31455;DHT22;18084;53.028;8.834;2024-03-29T02:14:16;6.60;75.80
31455;DHT22;18084;53.028;8.834;2024-03-29T02:16:42;6.60;75.80
31455;DHT22;18084;53.028;8.834;2024-03-29T02:19:07;6.70;75.60
31455;DHT22;18084;53.028;8.834;2024-03-29T02:21:36;6.70;75.20
31455;DHT22;18084;53.028;8.834;2024-03-29T02:24:09;6.70;75.00
31455;DHT22;18084;53.028;8.834;2024-03-29T02:26:35;6.80;75.00
31455;DHT22;18084;53.028;8.834;2024-03-29T02:29:07;6.90;74.80
31455;DHT22;18084;53.028;8.834;2024-03-29T02:31:33;6.90;74.80
31455;DHT22;18084;53.028;8.834;2024-03-29T02:33:59;6.90;74.80
31455;DHT22;18084;53.028;8.834;2024-03-29T02:36:24;6.90;74.40
31455;DHT22;18084;53.028;8.834;2024-03-29T02:38:50;6.90;74.60
31455;DHT22;18084;53.028;8.834;2024-03-29T02:41:15;6.90;74.40
31455;DHT22;18084;53.028;8.834;2024-03-29T02:43:41;6.90;74.30
31455;DHT22;18084;53.028;8.834;2024-03-29T02:46:07;6.90;74.40
31455;DHT22;18084;53.028;8.834;2024-03-29T02:48:32;6.80;74.40
31455;DHT22;18084;53.028;8.834;2024-03-29T02:50:57;6.80;74.60
31455;DHT22;18084;53.028;8.834;2024-03-29T02:53:23;6.80;74.60
31455;DHT22;18084;53.028;8.834;2024-03-29T02:55:48;6.80;74.50
31455;DHT22;18084;53.028;8.834;2024-03-29T02:58:15;6.80;74.30
31455;DHT22;18084;53.028;8.834;2024-03-29T03:00:40;6.90;74.20
31455;DHT22;18084;53.028;8.834;2024-03-29T03:03:05;6.90;74.10
31455;DHT22;18084;53.028;8.834;2024-03-29T03:05:31;6.90;74.20
31455;DHT22;18084;53.028;8.834;2024-03-29T03:07:58;6.80;74.30
31455;DHT22;18084;53.028;8.834;2024-03-29T03:10:48;6.70;74.20
31455;DHT22;18084;53.028;8.834;2024-03-29T03:13:28;6.70;74.90
31455;DHT22;18084;53.028;8.834;2024-03-29T03:15:54;6.60;74.90
31455;DHT22;18084;53.028;8.834;2024-03-29T03:18:20;6.50;74.80
31455;DHT22;18084;53.028;8.834;2024-03-29T03:20:55;6.60;74.90
31455;DHT22;18084;53.028;8.834;2024-03-29T03:23:22;6.60;75.00
31455;DHT22;18084;53.028;8.834;2024-03-29T03:25:55;6.50;74.90
31455;DHT22;18084;53.028;8.834;2024-03-29T03:28:21;6.50;75.00
31455;DHT22;18084;53.028;8.834;2024-03-29T03:30:47;6.50;75.10
31455;DHT22;18084;53.028;8.834;2024-03-29T03:33:13;6.50;75.10
31455;DHT22;18084;53.028;8.834;2024-03-29T03:35:38;6.50;74.90
31455;DHT22;18084;53.028;8.834;2024-03-29T03:38:04;6.50;75.10
31455;DHT22;18084;53.028;8.834;2024-03-29T03:40:29;6.50;75.30
31455;DHT22;18084;53.028;8.834;2024-03-29T03:42:55;6.50;74.80
31455;DHT22;18084;53.028;8.834;2024-03-29T03:45:20;6.60;74.90
31455;DHT22;18084;53.028;8.834;2024-03-29T03:47:46;6.70;75.00
31455;DHT22;18084;53.028;8.834;2024-03-29T03:50:11;6.60;74.60
31455;DHT22;18084;53.028;8.834;2024-03-29T03:52:37;6.70;74.50
31455;DHT22;18084;53.028;8.834;2024-03-29T03:55:03;6.70;74.40
31455;DHT22;18084;53.028;8.834;2024-03-29T03:57:28;6.70;74.60
31455;DHT22;18084;53.028;8.834;2024-03-29T03:59:54;6.70;74.50
31455;DHT22;18084;53.028;8.834;2024-03-29T04:02:19;6.70;74.70
31455;DHT22;18084;53.028;8.834;2024-03-29T04:04:48;6.70;74.70
31455;DHT22;18084;53.028;8.834;2024-03-29T04:07:14;6.70;74.50
31455;DHT22;18084;53.028;8.834;2024-03-29T04:09:39;6.80;74.30
31455;DHT22;18084;53.028;8.834;2024-03-29T04:12:05;6.90;74.10
31455;DHT22;18084;53.028;8.834;2024-03-29T04:14:30;6.80;74.10
31455;DHT22;18084;53.028;8.834;2024-03-29T04:16:56;6.90;74.10
31455;DHT22;18084;53.028;8.834;2024-03-29T04:19:22;6.90;74.10
31455;DHT22;18084;53.028;8.834;2024-03-29T04:21:47;6.90;74.20
31455;DHT22;18084;53.028;8.834;2024-03-29T04:24:13;6.90;74.40
31455;DHT22;18084;53.028;8.834;2024-03-29T04:26:39;6.80;74.50
31455;DHT22;18084;53.028;8.834;2024-03-29T04:29:05;6.70;74.90
31455;DHT22;18084;53.028;8.834;2024-03-29T04:31:30;6.70;75.10
31455;DHT22;18084;53.028;8.834;2024-03-29T04:33:56;6.60;75.20
31455;DHT22;18084;53.028;8.834;2024-03-29T04:36:22;6.60;75.50
31455;DHT22;18084;53.028;8.834;2024-03-29T04:38:47;6.50;75.70
31455;DHT22;18084;53.028;8.834;2024-03-29T04:41:13;6.50;75.90
31455;DHT22;18084;53.028;8.834;2024-03-29T04:43:40;6.40;75.80
31455;DHT22;18084;53.028;8.834;2024-03-29T04:46:13;6.40;75.70
31455;DHT22;18084;53.028;8.834;2024-03-29T04:48:40;6.40;75.80
31455;DHT22;18084;53.028;8.834;2024-03-29T04:51:06;6.40;75.70
31455;DHT22;18084;53.028;8.834;2024-03-29T04:53:32;6.50;75.90
31455;DHT22;18084;53.028;8.834;2024-03-29T04:55:58;6.50;75.90
31455;DHT22;18084;53.028;8.834;2024-03-29T04:58:25;6.50;75.90
31455;DHT22;18084;53.028;8.834;2024-03-29T05:00:51;6.50;75.70
31455;DHT22;18084;53.028;8.834;2024-03-29T05:03:17;6.50;75.80
31455;DHT22;18084;53.028;8.834;2024-03-29T05:05:44;6.60;75.90
31455;DHT22;18084;53.028;8.834;2024-03-29T05:08:10;6.50;75.80
31455;DHT22;18084;53.028;8.834;2024-03-29T05:10:35;6.50;76.00
31455;DHT22;18084;53.028;8.834;2024-03-29T05:13:01;6.60;75.90
31455;DHT22;18084;53.028;8.834;2024-03-29T05:15:26;6.70;75.60
31455;DHT22;18084;53.028;8.834;2024-03-29T05:17:52;6.70;75.60
31455;DHT22;18084;53.028;8.834;2024-03-29T05:20:18;6.80;75.20
31455;DHT22;18084;53.028;8.834;2024-03-29T05:22:44;6.80;75.10
31455;DHT22;18084;53.028;8.834;2024-03-29T05:25:10;6.80;75.30
31455;DHT22;18084;53.028;8.834;2024-03-29T05:27:35;6.90;75.20
31455;DHT22;18084;53.028;8.834;2024-03-29T05:30:01;6.90;75.20
31455;DHT22;18084;53.028;8.834;2024-03-29T05:32:29;6.90;75.10
31455;DHT22;18084;53.028;8.834;2024-03-29T05:34:54;6.80;75.30
31455;DHT22;18084;53.028;8.834;2024-03-29T05:37:20;6.90;75.60
31455;DHT22;18084;53.028;8.834;2024-03-29T05:39:47;6.90;75.40
31455;DHT22;18084;53.028;8.834;2024-03-29T05:42:13;6.90;75.10
31455;DHT22;18084;53.028;8.834;2024-03-29T05:44:38;7.00;74.90
31455;DHT22;18084;53.028;8.834;2024-03-29T05:47:04;7.00;74.80
31455;DHT22;18084;53.028;8.834;2024-03-29T05:49:33;7.10;74.60
31455;DHT22;18084;53.028;8.834;2024-03-29T05:51:59;7.20;74.30
31455;DHT22;18084;53.028;8.834;2024-03-29T05:54:24;7.30;74.40
31455;DHT22;18084;53.028;8.834;2024-03-29T05:56:50;7.30;74.10
31455;DHT22;18084;53.028;8.834;2024-03-29T05:59:15;7.50;74.10
31455;DHT22;18084;53.028;8.834;2024-03-29T06:01:41;7.50;74.20
31455;DHT22;18084;53.028;8.834;2024-03-29T06:04:07;7.70;74.10
31455;DHT22;18084;53.028;8.834;2024-03-29T06:06:40;7.80;73.30
31455;DHT22;18084;53.028;8.834;2024-03-29T06:09:05;7.90;73.60
31455;DHT22;18084;53.028;8.834;2024-03-29T06:11:31;7.90;73.50
31455;DHT22;18084;53.028;8.834;2024-03-29T06:13:57;7.90;73.70
31455;DHT22;18084;53.028;8.834;2024-03-29T06:16:24;8.00;73.20
31455;DHT22;18084;53.028;8.834;2024-03-29T06:19:09;8.20;73.10
31455;DHT22;18084;53.028;8.834;2024-03-29T06:21:34;8.20;72.80
31455;DHT22;18084;53.028;8.834;2024-03-29T06:24:11;8.40;72.60
31455;DHT22;18084;53.028;8.834;2024-03-29T06:26:41;8.40;72.70
31455;DHT22;18084;53.028;8.834;2024-03-29T06:29:07;8.40;73.50
31455;DHT22;18084;53.028;8.834;2024-03-29T06:31:36;8.40;73.70
31455;DHT22;18084;53.028;8.834;2024-03-29T06:34:01;8.40;73.70
31455;DHT22;18084;53.028;8.834;2024-03-29T06:36:27;8.40;73.80
31455;DHT22;18084;53.028;8.834;2024-03-29T06:38:54;8.40;74.80
31455;DHT22;18084;53.028;8.834;2024-03-29T06:41:19;8.30;74.80
31455;DHT22;18084;53.028;8.834;2024-03-29T06:43:45;8.30;75.20
31455;DHT22;18084;53.028;8.834;2024-03-29T06:46:14;8.30;75.30
31455;DHT22;18084;53.028;8.834;2024-03-29T06:48:40;8.30;75.50
31455;DHT22;18084;53.028;8.834;2024-03-29T06:51:06;8.20;76.30
31455;DHT22;18084;53.028;8.834;2024-03-29T06:53:31;8.20;76.60
31455;DHT22;18084;53.028;8.834;2024-03-29T06:56:00;8.20;77.20
31455;DHT22;18084;53.028;8.834;2024-03-29T06:58:25;8.10;77.50
31455;DHT22;18084;53.028;8.834;2024-03-29T07:00:51;8.20;77.70
31455;DHT22;18084;53.028;8.834;2024-03-29T07:03:18;8.20;78.00
31455;DHT22;18084;53.028;8.834;2024-03-29T07:05:45;8.20;78.30
31455;DHT22;18084;53.028;8.834;2024-03-29T07:08:10;8.20;78.60
31455;DHT22;18084;53.028;8.834;2024-03-29T07:10:36;8.10;78.70
31455;DHT22;18084;53.028;8.834;2024-03-29T07:13:02;8.10;78.80
31455;DHT22;18084;53.028;8.834;2024-03-29T07:15:27;8.10;79.20
31455;DHT22;18084;53.028;8.834;2024-03-29T07:17:53;8.10;79.60
31455;DHT22;18084;53.028;8.834;2024-03-29T07:20:19;8.00;79.80
31455;DHT22;18084;53.028;8.834;2024-03-29T07:22:44;8.00;80.10
31455;DHT22;18084;53.028;8.834;2024-03-29T07:25:11;8.00;80.40
31455;DHT22;18084;53.028;8.834;2024-03-29T07:27:36;8.00;80.50
31455;DHT22;18084;53.028;8.834;2024-03-29T07:30:06;8.00;80.60
31455;DHT22;18084;53.028;8.834;2024-03-29T07:32:33;8.00;80.90
31455;DHT22;18084;53.028;8.834;2024-03-29T07:34:59;8.10;80.70
31455;DHT22;18084;53.028;8.834;2024-03-29T07:37:25;8.10;81.20
31455;DHT22;18084;53.028;8.834;2024-03-29T07:39:51;8.20;81.60
31455;DHT22;18084;53.028;8.834;2024-03-29T07:42:19;8.20;81.40
31455;DHT22;18084;53.028;8.834;2024-03-29T07:44:45;8.30;81.40
31455;DHT22;18084;53.028;8.834;2024-03-29T07:47:11;8.30;81.30
31455;DHT22;18084;53.028;8.834;2024-03-29T07:49:38;8.40;81.20
31455;DHT22;18084;53.028;8.834;2024-03-29T07:52:04;8.40;80.80
31455;DHT22;18084;53.028;8.834;2024-03-29T07:54:31;8.50;81.50
31455;DHT22;18084;53.028;8.834;2024-03-29T07:56:57;8.60;81.30
31455;DHT22;18084;53.028;8.834;2024-03-29T07:59:22;8.70;81.10
31455;DHT22;18084;53.028;8.834;2024-03-29T08:01:48;8.90;80.90
31455;DHT22;18084;53.028;8.834;2024-03-29T08:04:13;9.20;79.80
31455;DHT22;18084;53.028;8.834;2024-03-29T08:06:39;9.50;79.40
31455;DHT22;18084;53.028;8.834;2024-03-29T08:09:04;9.70;78.70
31455;DHT22;18084;53.028;8.834;2024-03-29T08:11:30;9.90;78.60
31455;DHT22;18084;53.028;8.834;2024-03-29T08:13:55;10.00;78.00
31455;DHT22;18084;53.028;8.834;2024-03-29T08:16:21;10.00;76.70
31455;DHT22;18084;53.028;8.834;2024-03-29T08:18:46;10.20;77.60
31455;DHT22;18084;53.028;8.834;2024-03-29T08:21:13;10.40;75.60
31455;DHT22;18084;53.028;8.834;2024-03-29T08:23:40;10.40;76.70
31455;DHT22;18084;53.028;8.834;2024-03-29T08:26:05;10.40;75.60
31455;DHT22;18084;53.028;8.834;2024-03-29T08:28:31;10.40;75.80
31455;DHT22;18084;53.028;8.834;2024-03-29T08:31:04;10.20;76.30
31455;DHT22;18084;53.028;8.834;2024-03-29T08:33:31;10.00;76.30
31455;DHT22;18084;53.028;8.834;2024-03-29T08:35:57;10.00;77.20
31455;DHT22;18084;53.028;8.834;2024-03-29T08:38:23;10.10;77.00
31455;DHT22;18084;53.028;8.834;2024-03-29T08:40:49;10.10;76.00
31455;DHT22;18084;53.028;8.834;2024-03-29T08:43:15;10.30;77.30
31455;DHT22;18084;53.028;8.834;2024-03-29T08:45:44;10.70;75.70
31455;DHT22;18084;53.028;8.834;2024-03-29T08:48:10;10.80;74.30
31455;DHT22;18084;53.028;8.834;2024-03-29T08:50:36;10.60;74.40
31455;DHT22;18084;53.028;8.834;2024-03-29T08:53:05;10.30;74.60
31455;DHT22;18084;53.028;8.834;2024-03-29T08:55:31;10.10;76.00
31455;DHT22;18084;53.028;8.834;2024-03-29T08:57:58;10.10;75.80
31455;DHT22;18084;53.028;8.834;2024-03-29T09:00:25;10.00;75.70
31455;DHT22;18084;53.028;8.834;2024-03-29T09:02:50;10.00;76.30
31455;DHT22;18084;53.028;8.834;2024-03-29T09:05:16;10.00;76.00
31455;DHT22;18084;53.028;8.834;2024-03-29T09:07:42;9.90;76.30
31455;DHT22;18084;53.028;8.834;2024-03-29T09:10:10;10.00;76.30
31455;DHT22;18084;53.028;8.834;2024-03-29T09:12:35;9.80;75.50
31455;DHT22;18084;53.028;8.834;2024-03-29T09:15:01;9.80;76.30
31455;DHT22;18084;53.028;8.834;2024-03-29T09:17:26;9.70;76.10
31455;DHT22;18084;53.028;8.834;2024-03-29T09:19:52;9.60;76.60
31455;DHT22;18084;53.028;8.834;2024-03-29T09:22:18;9.60;77.10
31455;DHT22;18084;53.028;8.834;2024-03-29T09:24:44;9.50;76.90
31455;DHT22;18084;53.028;8.834;2024-03-29T09:27:10;9.50;77.30
31455;DHT22;18084;53.028;8.834;2024-03-29T09:29:35;9.50;76.80
31455;DHT22;18084;53.028;8.834;2024-03-29T09:32:01;9.50;76.70
31455;DHT22;18084;53.028;8.834;2024-03-29T09:34:28;9.50;77.40
31455;DHT22;18084;53.028;8.834;2024-03-29T09:36:53;9.60;77.00
31455;DHT22;18084;53.028;8.834;2024-03-29T09:39:19;9.50;76.90
31455;DHT22;18084;53.028;8.834;2024-03-29T09:41:47;9.70;77.00
31455;DHT22;18084;53.028;8.834;2024-03-29T09:44:14;9.80;77.10
31455;DHT22;18084;53.028;8.834;2024-03-29T09:46:41;9.80;76.30
31455;DHT22;18084;53.028;8.834;2024-03-29T09:49:11;9.80;76.20
31455;DHT22;18084;53.028;8.834;2024-03-29T09:51:40;9.80;75.90
31455;DHT22;18084;53.028;8.834;2024-03-29T09:54:07;9.90;75.50
31455;DHT22;18084;53.028;8.834;2024-03-29T09:56:37;10.00;75.50
31455;DHT22;18084;53.028;8.834;2024-03-29T09:59:03;10.00;75.60
31455;DHT22;18084;53.028;8.834;2024-03-29T10:01:29;10.10;75.60
31455;DHT22;18084;53.028;8.834;2024-03-29T10:03:56;10.00;76.00
31455;DHT22;18084;53.028;8.834;2024-03-29T10:06:24;10.20;75.70
31455;DHT22;18084;53.028;8.834;2024-03-29T10:08:49;10.60;75.30
31455;DHT22;18084;53.028;8.834;2024-03-29T10:11:15;11.30;72.90
31455;DHT22;18084;53.028;8.834;2024-03-29T10:13:45;11.70;72.00
31455;DHT22;18084;53.028;8.834;2024-03-29T10:16:11;11.90;72.60
31455;DHT22;18084;53.028;8.834;2024-03-29T10:18:38;11.90;71.80
31455;DHT22;18084;53.028;8.834;2024-03-29T10:21:06;11.90;72.10
31455;DHT22;18084;53.028;8.834;2024-03-29T10:23:33;12.40;70.60
31455;DHT22;18084;53.028;8.834;2024-03-29T10:25:59;12.50;70.40
31455;DHT22;18084;53.028;8.834;2024-03-29T10:28:31;12.30;70.80
31455;DHT22;18084;53.028;8.834;2024-03-29T10:30:58;12.10;70.50
31455;DHT22;18084;53.028;8.834;2024-03-29T10:33:28;12.20;71.00
31455;DHT22;18084;53.028;8.834;2024-03-29T10:35:54;12.20;71.20
31455;DHT22;18084;53.028;8.834;2024-03-29T10:38:21;12.30;71.40
31455;DHT22;18084;53.028;8.834;2024-03-29T10:40:48;12.50;71.50
31455;DHT22;18084;53.028;8.834;2024-03-29T10:43:14;12.60;71.30
31455;DHT22;18084;53.028;8.834;2024-03-29T10:45:42;12.60;70.60
31455;DHT22;18084;53.028;8.834;2024-03-29T10:48:09;12.80;70.60
31455;DHT22;18084;53.028;8.834;2024-03-29T10:50:38;13.10;69.00
31455;DHT22;18084;53.028;8.834;2024-03-29T10:53:06;13.00;68.90
31455;DHT22;18084;53.028;8.834;2024-03-29T10:55:35;12.90;69.10
31455;DHT22;18084;53.028;8.834;2024-03-29T10:58:02;12.60;69.60
31455;DHT22;18084;53.028;8.834;2024-03-29T11:00:29;12.30;70.80
31455;DHT22;18084;53.028;8.834;2024-03-29T11:03:18;12.40;70.80
31455;DHT22;18084;53.028;8.834;2024-03-29T11:05:47;12.60;70.70
31455;DHT22;18084;53.028;8.834;2024-03-29T11:08:19;13.00;70.20
31455;DHT22;18084;53.028;8.834;2024-03-29T11:10:47;13.40;68.60
31455;DHT22;18084;53.028;8.834;2024-03-29T11:13:31;13.70;68.20
31455;DHT22;18084;53.028;8.834;2024-03-29T11:15:59;13.80;68.00
31455;DHT22;18084;53.028;8.834;2024-03-29T11:18:29;14.00;67.30
31455;DHT22;18084;53.028;8.834;2024-03-29T11:20:57;14.10;67.10
31455;DHT22;18084;53.028;8.834;2024-03-29T11:23:26;14.00;67.50
31455;DHT22;18084;53.028;8.834;2024-03-29T11:25:53;14.00;67.40
31455;DHT22;18084;53.028;8.834;2024-03-29T11:28:24;14.10;67.80
31455;DHT22;18084;53.028;8.834;2024-03-29T11:30:51;14.10;66.90
31455;DHT22;18084;53.028;8.834;2024-03-29T11:36:21;13.90;67.10
31455;DHT22;18084;53.028;8.834;2024-03-29T11:38:50;13.90;68.50
31455;DHT22;18084;53.028;8.834;2024-03-29T11:41:20;14.00;68.10
31455;DHT22;18084;53.028;8.834;2024-03-29T11:43:49;14.00;67.60
31455;DHT22;18084;53.028;8.834;2024-03-29T11:46:15;14.00;66.80
31455;DHT22;18084;53.028;8.834;2024-03-29T11:48:44;14.10;68.10
31455;DHT22;18084;53.028;8.834;2024-03-29T11:51:13;14.20;66.80
31455;DHT22;18084;53.028;8.834;2024-03-29T11:53:40;14.30;68.20
31455;DHT22;18084;53.028;8.834;2024-03-29T11:56:06;14.50;66.50
31455;DHT22;18084;53.028;8.834;2024-03-29T11:58:33;14.80;66.30
31455;DHT22;18084;53.028;8.834;2024-03-29T12:00:59;14.60;65.50
31455;DHT22;18084;53.028;8.834;2024-03-29T12:03:27;14.60;66.60
31455;DHT22;18084;53.028;8.834;2024-03-29T12:05:54;14.60;65.90
31455;DHT22;18084;53.028;8.834;2024-03-29T12:08:30;14.50;64.90
31455;DHT22;18084;53.028;8.834;2024-03-29T12:11:01;14.50;66.10
31455;DHT22;18084;53.028;8.834;2024-03-29T12:13:27;14.60;66.10
31455;DHT22;18084;53.028;8.834;2024-03-29T12:15:53;14.40;66.80
31455;DHT22;18084;53.028;8.834;2024-03-29T12:18:23;14.50;66.70
31455;DHT22;18084;53.028;8.834;2024-03-29T12:20:50;14.40;67.10
31455;DHT22;18084;53.028;8.834;2024-03-29T12:23:17;14.40;66.50
31455;DHT22;18084;53.028;8.834;2024-03-29T12:25:43;14.20;67.00
31455;DHT22;18084;53.028;8.834;2024-03-29T12:28:13;14.20;66.10
31455;DHT22;18084;53.028;8.834;2024-03-29T12:30:41;14.20;67.00
31455;DHT22;18084;53.028;8.834;2024-03-29T12:33:10;14.40;66.70
31455;DHT22;18084;53.028;8.834;2024-03-29T12:35:36;14.20;66.50
31455;DHT22;18084;53.028;8.834;2024-03-29T12:38:03;14.40;67.40
31455;DHT22;18084;53.028;8.834;2024-03-29T12:40:31;14.60;67.90
31455;DHT22;18084;53.028;8.834;2024-03-29T12:43:04;14.50;65.50
31455;DHT22;18084;53.028;8.834;2024-03-29T12:45:30;14.50;67.20
31455;DHT22;18084;53.028;8.834;2024-03-29T12:47:56;14.40;67.30
31455;DHT22;18084;53.028;8.834;2024-03-29T12:50:29;14.50;66.90
31455;DHT22;18084;53.028;8.834;2024-03-29T12:53:00;14.50;67.10
31455;DHT22;18084;53.028;8.834;2024-03-29T12:55:28;14.30;68.10
31455;DHT22;18084;53.028;8.834;2024-03-29T12:57:56;14.10;69.80
31455;DHT22;18084;53.028;8.834;2024-03-29T13:00:22;14.00;70.10
31455;DHT22;18084;53.028;8.834;2024-03-29T13:02:49;14.00;70.40
31455;DHT22;18084;53.028;8.834;2024-03-29T13:05:15;13.80;70.90
31455;DHT22;18084;53.028;8.834;2024-03-29T13:07:40;13.60;71.90
31455;DHT22;18084;53.028;8.834;2024-03-29T13:10:07;13.60;71.60
31455;DHT22;18084;53.028;8.834;2024-03-29T13:12:40;13.60;71.80
31455;DHT22;18084;53.028;8.834;2024-03-29T13:15:16;13.60;71.90
31455;DHT22;18084;53.028;8.834;2024-03-29T13:17:42;13.80;71.30
31455;DHT22;18084;53.028;8.834;2024-03-29T13:20:07;13.80;71.60
31455;DHT22;18084;53.028;8.834;2024-03-29T13:22:35;13.90;71.10
31455;DHT22;18084;53.028;8.834;2024-03-29T13:25:00;13.70;70.80
31455;DHT22;18084;53.028;8.834;2024-03-29T13:27:26;13.70;69.80
31455;DHT22;18084;53.028;8.834;2024-03-29T13:29:51;13.80;71.10
31455;DHT22;18084;53.028;8.834;2024-03-29T13:32:18;14.20;71.20
31455;DHT22;18084;53.028;8.834;2024-03-29T13:34:43;14.50;67.30
31455;DHT22;18084;53.028;8.834;2024-03-29T13:37:09;14.70;67.20
31455;DHT22;18084;53.028;8.834;2024-03-29T13:39:34;14.50;68.00
31455;DHT22;18084;53.028;8.834;2024-03-29T13:42:00;14.60;67.80
31455;DHT22;18084;53.028;8.834;2024-03-29T13:44:25;14.80;67.90
31455;DHT22;18084;53.028;8.834;2024-03-29T13:46:51;15.00;66.10
31455;DHT22;18084;53.028;8.834;2024-03-29T13:49:17;15.00;66.30
31455;DHT22;18084;53.028;8.834;2024-03-29T13:51:46;14.90;64.90
31455;DHT22;18084;53.028;8.834;2024-03-29T13:54:12;15.00;66.20
31455;DHT22;18084;53.028;8.834;2024-03-29T13:56:38;15.10;66.00
31455;DHT22;18084;53.028;8.834;2024-03-29T13:59:03;15.10;64.60
31455;DHT22;18084;53.028;8.834;2024-03-29T14:01:29;15.00;65.50
31455;DHT22;18084;53.028;8.834;2024-03-29T14:03:54;15.00;65.20
31455;DHT22;18084;53.028;8.834;2024-03-29T14:06:20;15.00;66.00
31455;DHT22;18084;53.028;8.834;2024-03-29T14:08:46;15.20;67.20
31455;DHT22;18084;53.028;8.834;2024-03-29T14:11:11;15.40;65.20
31455;DHT22;18084;53.028;8.834;2024-03-29T14:13:39;15.40;65.00
31455;DHT22;18084;53.028;8.834;2024-03-29T14:16:05;15.40;65.30
31455;DHT22;18084;53.028;8.834;2024-03-29T14:18:30;15.50;65.00
31455;DHT22;18084;53.028;8.834;2024-03-29T14:20:57;15.50;62.80
31455;DHT22;18084;53.028;8.834;2024-03-29T14:23:22;15.40;63.70
31455;DHT22;18084;53.028;8.834;2024-03-29T14:25:50;15.50;63.70
31455;DHT22;18084;53.028;8.834;2024-03-29T14:28:16;15.50;63.70
31455;DHT22;18084;53.028;8.834;2024-03-29T14:30:41;15.30;64.30
31455;DHT22;18084;53.028;8.834;2024-03-29T14:33:07;15.30;65.90
31455;DHT22;18084;53.028;8.834;2024-03-29T14:35:34;15.00;66.20
31455;DHT22;18084;53.028;8.834;2024-03-29T14:38:00;14.80;67.10
31455;DHT22;18084;53.028;8.834;2024-03-29T14:40:26;14.70;68.00
31455;DHT22;18084;53.028;8.834;2024-03-29T14:42:54;14.80;67.90
31455;DHT22;18084;53.028;8.834;2024-03-29T14:45:21;14.80;67.60
31455;DHT22;18084;53.028;8.834;2024-03-29T14:47:47;14.90;68.40
31455;DHT22;18084;53.028;8.834;2024-03-29T14:50:12;15.00;66.60
31455;DHT22;18084;53.028;8.834;2024-03-29T14:52:38;15.00;66.30
31455;DHT22;18084;53.028;8.834;2024-03-29T14:55:04;15.10;66.50
31455;DHT22;18084;53.028;8.834;2024-03-29T14:57:30;15.30;66.20
31455;DHT22;18084;53.028;8.834;2024-03-29T14:59:57;15.40;65.80
31455;DHT22;18084;53.028;8.834;2024-03-29T15:02:22;15.50;64.70
31455;DHT22;18084;53.028;8.834;2024-03-29T15:04:48;15.50;64.70
31455;DHT22;18084;53.028;8.834;2024-03-29T15:07:13;15.40;64.30
31455;DHT22;18084;53.028;8.834;2024-03-29T15:09:39;15.40;65.20
31455;DHT22;18084;53.028;8.834;2024-03-29T15:12:05;15.40;64.90
31455;DHT22;18084;53.028;8.834;2024-03-29T15:14:31;15.20;65.50
31455;DHT22;18084;53.028;8.834;2024-03-29T15:16:56;15.30;66.10
31455;DHT22;18084;53.028;8.834;2024-03-29T15:19:22;15.60;64.40
31455;DHT22;18084;53.028;8.834;2024-03-29T15:21:48;15.70;62.80
31455;DHT22;18084;53.028;8.834;2024-03-29T15:24:14;15.40;64.10
31455;DHT22;18084;53.028;8.834;2024-03-29T15:26:40;15.10;65.60
31455;DHT22;18084;53.028;8.834;2024-03-29T15:29:06;15.00;66.00
31455;DHT22;18084;53.028;8.834;2024-03-29T15:31:39;15.00;67.20
31455;DHT22;18084;53.028;8.834;2024-03-29T15:34:07;15.00;66.70
31455;DHT22;18084;53.028;8.834;2024-03-29T15:36:34;15.10;66.70
31455;DHT22;18084;53.028;8.834;2024-03-29T15:39:02;15.00;66.20